sensor_id;sensor_type;location;lat;lon;timestamp;P1;durP1;ratioP1;P2;durP2;ratioP2
2706;SDS011;7819;48.046;7.642;2023-04-01T00:00:18;0.90;;;0.80;;
2706;SDS011;7819;48.046;7.642;2023-04-01T00:02:43;1.20;;;1.10;;
2706;SDS011;7819;48.046;7.642;2023-04-01T00:05:09;1.10;;;1.00;;
2706;SDS011;7819;48.046;7.642;2023-04-01T00:07:35;1.23;;;1.20;;
2706;SDS011;7819;48.046;7.642;2023-04-01T00:10:00;1.87;;;1.60;;
2706;SDS011;7819;48.046;7.642;2023-04-01T00:12:25;1.30;;;1.20;;
2706;SDS011;7819;48.046;7.642;2023-04-01T00:14:50;1.67;;;1.57;;
2706;SDS011;7819;48.046;7.642;2023-04-01T00:17:16;1.67;;;1.57;;
2706;SDS011;7819;48.046;7.642;2023-04-01T00:19:41;1.50;;;1.40;;
2706;SDS011;7819;48.046;7.642;2023-04-01T00:22:06;1.67;;;1.57;;
2706;SDS011;7819;48.046;7.642;2023-04-01T00:24:32;1.83;;;1.60;;
2706;SDS011;7819;48.046;7.642;2023-04-01T00:26:57;1.77;;;1.67;;
2706;SDS011;7819;48.046;7.642;2023-04-01T00:29:22;1.80;;;1.70;;
2706;SDS011;7819;48.046;7.642;2023-04-01T00:31:49;2.63;;;2.40;;
2706;SDS011;7819;48.046;7.642;2023-04-01T00:34:14;1.80;;;1.70;;
2706;SDS011;7819;48.046;7.642;2023-04-01T00:36:40;2.50;;;2.30;;
2706;SDS011;7819;48.046;7.642;2023-04-01T00:39:05;4.03;;;2.50;;
2706;SDS011;7819;48.046;7.642;2023-04-01T00:41:30;2.10;;;2.00;;
2706;SDS011;7819;48.046;7.642;2023-04-01T00:44:11;2.60;;;2.10;;
2706;SDS011;7819;48.046;7.642;2023-04-01T00:46:38;3.97;;;1.90;;
2706;SDS011;7819;48.046;7.642;2023-04-01T00:49:04;2.13;;;1.83;;
2706;SDS011;7819;48.046;7.642;2023-04-01T00:51:29;2.40;;;2.20;;
2706;SDS011;7819;48.046;7.642;2023-04-01T00:53:55;2.80;;;2.60;;
2706;SDS011;7819;48.046;7.642;2023-04-01T00:56:22;3.50;;;3.30;;
2706;SDS011;7819;48.046;7.642;2023-04-01T00:58:52;3.83;;;3.57;;
2706;SDS011;7819;48.046;7.642;2023-04-01T01:01:20;4.70;;;4.30;;
2706;SDS011;7819;48.046;7.642;2023-04-01T01:03:46;4.87;;;4.67;;
2706;SDS011;7819;48.046;7.642;2023-04-01T01:06:36;4.17;;;3.90;;
2706;SDS011;7819;48.046;7.642;2023-04-01T01:11:28;4.23;;;3.90;;
2706;SDS011;7819;48.046;7.642;2023-04-01T01:14:01;4.10;;;3.80;;
2706;SDS011;7819;48.046;7.642;2023-04-01T01:16:29;3.70;;;3.50;;
2706;SDS011;7819;48.046;7.642;2023-04-01T01:19:17;4.07;;;3.77;;
2706;SDS011;7819;48.046;7.642;2023-04-01T01:24:17;4.23;;;4.03;;
2706;SDS011;7819;48.046;7.642;2023-04-01T01:31:54;3.83;;;3.53;;
2706;SDS011;7819;48.046;7.642;2023-04-01T01:37:12;4.00;;;3.70;;
2706;SDS011;7819;48.046;7.642;2023-04-01T01:39:38;4.40;;;4.00;;
2706;SDS011;7819;48.046;7.642;2023-04-01T01:42:05;3.77;;;3.47;;
2706;SDS011;7819;48.046;7.642;2023-04-01T01:44:31;7.13;;;3.00;;
2706;SDS011;7819;48.046;7.642;2023-04-01T01:46:58;5.97;;;4.23;;
2706;SDS011;7819;48.046;7.642;2023-04-01T01:49:23;8.53;;;4.00;;
2706;SDS011;7819;48.046;7.642;2023-04-01T01:51:49;3.90;;;2.70;;
2706;SDS011;7819;48.046;7.642;2023-04-01T01:54:15;5.97;;;3.03;;
2706;SDS011;7819;48.046;7.642;2023-04-01T01:56:41;5.73;;;3.13;;
2706;SDS011;7819;48.046;7.642;2023-04-01T01:59:10;5.63;;;2.43;;
2706;SDS011;7819;48.046;7.642;2023-04-01T02:01:37;8.40;;;3.00;;
2706;SDS011;7819;48.046;7.642;2023-04-01T02:04:04;7.50;;;3.00;;
2706;SDS011;7819;48.046;7.642;2023-04-01T02:06:30;5.10;;;2.90;;
2706;SDS011;7819;48.046;7.642;2023-04-01T02:09:00;5.87;;;2.90;;
2706;SDS011;7819;48.046;7.642;2023-04-01T02:12:03;5.80;;;2.90;;
2706;SDS011;7819;48.046;7.642;2023-04-01T02:14:20;3.23;;;1.87;;
2706;SDS011;7819;48.046;7.642;2023-04-01T02:16:49;6.60;;;2.53;;
2706;SDS011;7819;48.046;7.642;2023-04-01T02:19:15;6.10;;;2.60;;
2706;SDS011;7819;48.046;7.642;2023-04-01T02:21:47;2.20;;;1.67;;
2706;SDS011;7819;48.046;7.642;2023-04-01T02:24:13;8.10;;;3.73;;
2706;SDS011;7819;48.046;7.642;2023-04-01T02:26:40;5.10;;;2.23;;
2706;SDS011;7819;48.046;7.642;2023-04-01T02:29:06;3.67;;;1.77;;
2706;SDS011;7819;48.046;7.642;2023-04-01T02:31:33;4.80;;;2.00;;
2706;SDS011;7819;48.046;7.642;2023-04-01T02:33:59;4.43;;;2.27;;
2706;SDS011;7819;48.046;7.642;2023-04-01T02:36:24;2.77;;;2.00;;
2706;SDS011;7819;48.046;7.642;2023-04-01T02:38:49;5.40;;;2.23;;
2706;SDS011;7819;48.046;7.642;2023-04-01T02:41:16;6.27;;;2.00;;
2706;SDS011;7819;48.046;7.642;2023-04-01T02:43:41;3.17;;;2.00;;
2706;SDS011;7819;48.046;7.642;2023-04-01T02:46:06;1.90;;;1.30;;
2706;SDS011;7819;48.046;7.642;2023-04-01T02:48:32;1.30;;;1.20;;
2706;SDS011;7819;48.046;7.642;2023-04-01T02:50:57;1.47;;;0.80;;
2706;SDS011;7819;48.046;7.642;2023-04-01T02:53:22;1.30;;;0.80;;
2706;SDS011;7819;48.046;7.642;2023-04-01T02:55:47;1.27;;;0.80;;
2706;SDS011;7819;48.046;7.642;2023-04-01T02:58:15;1.10;;;0.87;;
2706;SDS011;7819;48.046;7.642;2023-04-01T03:00:40;1.10;;;1.00;;
2706;SDS011;7819;48.046;7.642;2023-04-01T03:03:05;1.20;;;1.00;;
2706;SDS011;7819;48.046;7.642;2023-04-01T03:05:30;1.90;;;1.70;;
2706;SDS011;7819;48.046;7.642;2023-04-01T03:07:56;1.93;;;1.83;;
2706;SDS011;7819;48.046;7.642;2023-04-01T03:10:21;2.57;;;2.47;;
2706;SDS011;7819;48.046;7.642;2023-04-01T03:12:46;3.20;;;2.93;;
2706;SDS011;7819;48.046;7.642;2023-04-01T03:15:11;2.93;;;2.83;;
2706;SDS011;7819;48.046;7.642;2023-04-01T03:17:38;3.43;;;3.33;;
2706;SDS011;7819;48.046;7.642;2023-04-01T03:20:04;4.03;;;3.73;;
2706;SDS011;7819;48.046;7.642;2023-04-01T03:22:29;3.23;;;3.03;;
2706;SDS011;7819;48.046;7.642;2023-04-01T03:24:55;3.67;;;3.43;;
2706;SDS011;7819;48.046;7.642;2023-04-01T03:27:20;3.77;;;3.00;;
2706;SDS011;7819;48.046;7.642;2023-04-01T03:29:45;4.30;;;3.00;;
2706;SDS011;7819;48.046;7.642;2023-04-01T03:32:10;3.67;;;3.47;;
2706;SDS011;7819;48.046;7.642;2023-04-01T03:34:36;4.50;;;3.87;;
2706;SDS011;7819;48.046;7.642;2023-04-01T03:37:01;6.50;;;5.30;;
2706;SDS011;7819;48.046;7.642;2023-04-01T03:39:26;6.83;;;6.33;;
2706;SDS011;7819;48.046;7.642;2023-04-01T03:41:51;7.90;;;5.60;;
2706;SDS011;7819;48.046;7.642;2023-04-01T03:44:16;5.17;;;4.50;;
2706;SDS011;7819;48.046;7.642;2023-04-01T03:46:42;4.70;;;4.30;;
2706;SDS011;7819;48.046;7.642;2023-04-01T03:49:08;6.70;;;3.27;;
2706;SDS011;7819;48.046;7.642;2023-04-01T03:51:36;3.00;;;2.40;;
2706;SDS011;7819;48.046;7.642;2023-04-01T03:54:01;2.53;;;2.33;;
2706;SDS011;7819;48.046;7.642;2023-04-01T03:56:27;2.60;;;2.10;;
2706;SDS011;7819;48.046;7.642;2023-04-01T03:58:52;2.93;;;2.43;;
2706;SDS011;7819;48.046;7.642;2023-04-01T04:01:18;2.50;;;1.67;;
2706;SDS011;7819;48.046;7.642;2023-04-01T04:03:43;2.43;;;2.10;;
2706;SDS011;7819;48.046;7.642;2023-04-01T04:06:15;2.50;;;1.80;;
2706;SDS011;7819;48.046;7.642;2023-04-01T04:08:41;2.63;;;1.40;;
2706;SDS011;7819;48.046;7.642;2023-04-01T04:11:06;3.20;;;1.80;;
2706;SDS011;7819;48.046;7.642;2023-04-01T04:13:31;3.17;;;2.10;;
2706;SDS011;7819;48.046;7.642;2023-04-01T04:15:57;2.33;;;1.93;;
2706;SDS011;7819;48.046;7.642;2023-04-01T04:18:22;3.50;;;2.20;;
2706;SDS011;7819;48.046;7.642;2023-04-01T04:20:48;2.60;;;1.90;;
2706;SDS011;7819;48.046;7.642;2023-04-01T04:23:15;2.80;;;1.70;;
2706;SDS011;7819;48.046;7.642;2023-04-01T04:25:40;2.20;;;2.00;;
2706;SDS011;7819;48.046;7.642;2023-04-01T04:28:05;2.70;;;2.50;;
2706;SDS011;7819;48.046;7.642;2023-04-01T04:30:30;4.13;;;2.43;;
2706;SDS011;7819;48.046;7.642;2023-04-01T04:32:55;3.80;;;2.13;;
2706;SDS011;7819;48.046;7.642;2023-04-01T04:35:21;5.63;;;3.00;;
2706;SDS011;7819;48.046;7.642;2023-04-01T04:37:46;5.63;;;2.57;;
2706;SDS011;7819;48.046;7.642;2023-04-01T04:40:11;5.80;;;2.90;;
2706;SDS011;7819;48.046;7.642;2023-04-01T04:42:36;3.60;;;2.53;;
2706;SDS011;7819;48.046;7.642;2023-04-01T04:45:01;6.53;;;3.10;;
2706;SDS011;7819;48.046;7.642;2023-04-01T04:47:26;4.60;;;2.70;;
2706;SDS011;7819;48.046;7.642;2023-04-01T04:49:52;5.30;;;3.23;;
2706;SDS011;7819;48.046;7.642;2023-04-01T04:52:17;4.20;;;3.10;;
2706;SDS011;7819;48.046;7.642;2023-04-01T04:54:42;8.60;;;3.40;;
2706;SDS011;7819;48.046;7.642;2023-04-01T04:57:07;4.53;;;3.00;;
2706;SDS011;7819;48.046;7.642;2023-04-01T04:59:33;6.83;;;4.33;;
2706;SDS011;7819;48.046;7.642;2023-04-01T05:01:58;7.40;;;3.40;;
2706;SDS011;7819;48.046;7.642;2023-04-01T05:04:23;7.83;;;3.97;;
2706;SDS011;7819;48.046;7.642;2023-04-01T05:06:48;4.50;;;3.20;;
2706;SDS011;7819;48.046;7.642;2023-04-01T05:09:14;4.90;;;2.47;;
2706;SDS011;7819;48.046;7.642;2023-04-01T05:11:39;3.57;;;3.17;;
2706;SDS011;7819;48.046;7.642;2023-04-01T05:14:05;4.80;;;3.30;;
2706;SDS011;7819;48.046;7.642;2023-04-01T05:16:30;4.80;;;2.97;;
2706;SDS011;7819;48.046;7.642;2023-04-01T05:18:56;3.10;;;2.90;;
2706;SDS011;7819;48.046;7.642;2023-04-01T05:21:21;3.60;;;3.40;;
2706;SDS011;7819;48.046;7.642;2023-04-01T05:23:46;3.27;;;3.00;;
2706;SDS011;7819;48.046;7.642;2023-04-01T05:26:12;4.77;;;2.73;;
2706;SDS011;7819;48.046;7.642;2023-04-01T05:28:38;5.33;;;3.07;;
2706;SDS011;7819;48.046;7.642;2023-04-01T05:31:03;5.57;;;3.23;;
2706;SDS011;7819;48.046;7.642;2023-04-01T05:33:29;8.73;;;2.63;;
2706;SDS011;7819;48.046;7.642;2023-04-01T05:35:54;4.40;;;2.50;;
2706;SDS011;7819;48.046;7.642;2023-04-01T05:38:20;4.80;;;2.50;;
2706;SDS011;7819;48.046;7.642;2023-04-01T05:40:45;3.70;;;3.33;;
2706;SDS011;7819;48.046;7.642;2023-04-01T05:43:11;3.83;;;3.63;;
2706;SDS011;7819;48.046;7.642;2023-04-01T05:45:36;4.37;;;2.37;;
2706;SDS011;7819;48.046;7.642;2023-04-01T05:48:01;8.20;;;3.60;;
2706;SDS011;7819;48.046;7.642;2023-04-01T05:50:27;3.70;;;2.60;;
2706;SDS011;7819;48.046;7.642;2023-04-01T05:52:52;4.67;;;2.80;;
2706;SDS011;7819;48.046;7.642;2023-04-01T05:55:17;4.03;;;2.00;;
2706;SDS011;7819;48.046;7.642;2023-04-01T05:57:44;5.60;;;3.87;;
2706;SDS011;7819;48.046;7.642;2023-04-01T06:00:09;3.20;;;2.43;;
2706;SDS011;7819;48.046;7.642;2023-04-01T06:02:34;2.90;;;2.20;;
2706;SDS011;7819;48.046;7.642;2023-04-01T06:05:03;2.43;;;1.77;;
2706;SDS011;7819;48.046;7.642;2023-04-01T06:07:34;6.20;;;3.00;;
2706;SDS011;7819;48.046;7.642;2023-04-01T06:10:00;1.93;;;1.50;;
2706;SDS011;7819;48.046;7.642;2023-04-01T06:14:58;3.85;;;2.83;;
2706;SDS011;7819;48.046;7.642;2023-04-01T06:27:40;2.20;;;1.60;;
2706;SDS011;7819;48.046;7.642;2023-04-01T06:35:44;4.27;;;1.50;;
2706;SDS011;7819;48.046;7.642;2023-04-01T06:46:29;2.23;;;1.43;;
2706;SDS011;7819;48.046;7.642;2023-04-01T06:51:51;4.37;;;1.33;;
2706;SDS011;7819;48.046;7.642;2023-04-01T06:54:20;1.53;;;1.43;;
2706;SDS011;7819;48.046;7.642;2023-04-01T06:56:47;3.00;;;1.40;;
2706;SDS011;7819;48.046;7.642;2023-04-01T07:01:49;2.67;;;1.93;;
2706;SDS011;7819;48.046;7.642;2023-04-01T07:04:19;3.93;;;1.70;;
2706;SDS011;7819;48.046;7.642;2023-04-01T07:07:47;2.03;;;1.00;;
2706;SDS011;7819;48.046;7.642;2023-04-01T07:09:41;11.90;;;5.13;;
2706;SDS011;7819;48.046;7.642;2023-04-01T07:12:51;2.10;;;1.90;;
2706;SDS011;7819;48.046;7.642;2023-04-01T07:14:57;4.40;;;2.67;;
2706;SDS011;7819;48.046;7.642;2023-04-01T07:17:25;5.53;;;2.70;;
2706;SDS011;7819;48.046;7.642;2023-04-01T07:22:32;2.50;;;2.00;;
2706;SDS011;7819;48.046;7.642;2023-04-01T07:25:02;4.50;;;1.93;;
2706;SDS011;7819;48.046;7.642;2023-04-01T07:27:27;3.57;;;1.40;;
2706;SDS011;7819;48.046;7.642;2023-04-01T07:29:55;3.27;;;1.30;;
2706;SDS011;7819;48.046;7.642;2023-04-01T07:34:58;3.00;;;1.93;;
2706;SDS011;7819;48.046;7.642;2023-04-01T07:37:27;3.40;;;1.67;;
2706;SDS011;7819;48.046;7.642;2023-04-01T07:39:57;4.00;;;1.33;;
2706;SDS011;7819;48.046;7.642;2023-04-01T07:42:34;6.23;;;5.70;;
2706;SDS011;7819;48.046;7.642;2023-04-01T07:47:37;1.97;;;1.77;;
2706;SDS011;7819;48.046;7.642;2023-04-01T07:52:35;2.90;;;1.60;;
2706;SDS011;7819;48.046;7.642;2023-04-01T07:55:14;6.00;;;2.87;;
2706;SDS011;7819;48.046;7.642;2023-04-01T07:57:53;2.60;;;1.57;;
2706;SDS011;7819;48.046;7.642;2023-04-01T08:00:24;2.53;;;1.20;;
2706;SDS011;7819;48.046;7.642;2023-04-01T08:08:06;1.47;;;1.23;;
2706;SDS011;7819;48.046;7.642;2023-04-01T08:10:42;1.33;;;1.20;;
2706;SDS011;7819;48.046;7.642;2023-04-01T08:15:42;1.10;;;0.77;;
2706;SDS011;7819;48.046;7.642;2023-04-01T08:20:47;2.58;;;1.85;;
2706;SDS011;7819;48.046;7.642;2023-04-01T08:23:17;4.10;;;1.60;;
2706;SDS011;7819;48.046;7.642;2023-04-01T08:25:49;2.33;;;1.10;;
2706;SDS011;7819;48.046;7.642;2023-04-01T08:28:25;2.10;;;1.27;;
2706;SDS011;7819;48.046;7.642;2023-04-01T08:31:02;3.40;;;1.27;;
2706;SDS011;7819;48.046;7.642;2023-04-01T08:33:29;2.83;;;1.20;;
2706;SDS011;7819;48.046;7.642;2023-04-01T08:38:23;2.90;;;1.20;;
2706;SDS011;7819;48.046;7.642;2023-04-01T09:03:43;2.87;;;1.33;;
2706;SDS011;7819;48.046;7.642;2023-04-01T09:11:28;1.17;;;0.87;;
2706;SDS011;7819;48.046;7.642;2023-04-01T09:22:32;2.50;;;1.33;;
2706;SDS011;7819;48.046;7.642;2023-04-01T09:27:40;2.10;;;0.97;;
2706;SDS011;7819;48.046;7.642;2023-04-01T09:30:28;7.63;;;1.67;;
2706;SDS011;7819;48.046;7.642;2023-04-01T09:33:00;1.57;;;0.87;;
2706;SDS011;7819;48.046;7.642;2023-04-01T09:45:54;3.50;;;1.70;;
2706;SDS011;7819;48.046;7.642;2023-04-01T09:56:25;1.87;;;1.00;;
2706;SDS011;7819;48.046;7.642;2023-04-01T09:59:01;2.50;;;1.10;;
2706;SDS011;7819;48.046;7.642;2023-04-01T10:27:49;4.40;;;0.70;;
2706;SDS011;7819;48.046;7.642;2023-04-01T10:30:20;2.13;;;1.20;;
2706;SDS011;7819;48.046;7.642;2023-04-01T10:56:46;1.27;;;0.80;;
2706;SDS011;7819;48.046;7.642;2023-04-01T11:02:03;2.97;;;1.63;;
2706;SDS011;7819;48.046;7.642;2023-04-01T11:04:52;1.40;;;0.77;;
2706;SDS011;7819;48.046;7.642;2023-04-01T11:18:02;4.50;;;2.10;;
2706;SDS011;7819;48.046;7.642;2023-04-01T11:23:37;1.37;;;0.90;;
2706;SDS011;7819;48.046;7.642;2023-04-01T11:26:26;2.20;;;1.33;;
2706;SDS011;7819;48.046;7.642;2023-04-01T11:29:06;1.23;;;0.90;;
2706;SDS011;7819;48.046;7.642;2023-04-01T11:31:35;2.00;;;1.33;;
2706;SDS011;7819;48.046;7.642;2023-04-01T11:41:56;4.43;;;2.57;;
2706;SDS011;7819;48.046;7.642;2023-04-01T11:44:26;1.37;;;1.00;;
2706;SDS011;7819;48.046;7.642;2023-04-01T11:51:58;2.70;;;0.73;;
2706;SDS011;7819;48.046;7.642;2023-04-01T11:57:07;1.70;;;0.90;;
2706;SDS011;7819;48.046;7.642;2023-04-01T12:02:11;6.57;;;2.57;;
2706;SDS011;7819;48.046;7.642;2023-04-01T12:09:52;1.23;;;0.63;;
2706;SDS011;7819;48.046;7.642;2023-04-01T12:15:26;5.83;;;1.17;;
2706;SDS011;7819;48.046;7.642;2023-04-01T12:18:00;1.50;;;1.00;;
2706;SDS011;7819;48.046;7.642;2023-04-01T12:20:28;3.70;;;0.80;;
2706;SDS011;7819;48.046;7.642;2023-04-01T12:23:10;1.40;;;1.10;;
2706;SDS011;7819;48.046;7.642;2023-04-01T12:36:03;1.73;;;0.70;;
2706;SDS011;7819;48.046;7.642;2023-04-01T12:39:00;1.50;;;0.93;;
2706;SDS011;7819;48.046;7.642;2023-04-01T12:41:22;2.60;;;1.70;;
2706;SDS011;7819;48.046;7.642;2023-04-01T12:59:24;0.90;;;0.60;;
2706;SDS011;7819;48.046;7.642;2023-04-01T13:01:56;1.67;;;0.53;;
2706;SDS011;7819;48.046;7.642;2023-04-01T13:04:34;1.00;;;0.50;;
2706;SDS011;7819;48.046;7.642;2023-04-01T13:19:18;3.00;;;2.00;;
2706;SDS011;7819;48.046;7.642;2023-04-01T13:29:20;1.50;;;1.00;;
2706;SDS011;7819;48.046;7.642;2023-04-01T13:42:26;2.33;;;0.77;;
2706;SDS011;7819;48.046;7.642;2023-04-01T13:44:57;1.77;;;0.57;;
2706;SDS011;7819;48.046;7.642;2023-04-01T14:10:08;2.50;;;0.90;;
2706;SDS011;7819;48.046;7.642;2023-04-01T14:12:40;1.83;;;0.50;;
2706;SDS011;7819;48.046;7.642;2023-04-01T14:18:05;2.50;;;0.87;;
2706;SDS011;7819;48.046;7.642;2023-04-01T14:23:30;2.03;;;0.63;;
2706;SDS011;7819;48.046;7.642;2023-04-01T14:28:43;1.93;;;0.70;;
2706;SDS011;7819;48.046;7.642;2023-04-01T14:46:36;2.30;;;0.93;;
2706;SDS011;7819;48.046;7.642;2023-04-01T14:49:29;1.07;;;0.77;;
2706;SDS011;7819;48.046;7.642;2023-04-01T14:51:49;1.40;;;0.50;;
2706;SDS011;7819;48.046;7.642;2023-04-01T14:54:20;1.43;;;0.50;;
2706;SDS011;7819;48.046;7.642;2023-04-01T14:56:50;4.23;;;0.83;;
2706;SDS011;7819;48.046;7.642;2023-04-01T15:02:01;2.93;;;0.60;;
2706;SDS011;7819;48.046;7.642;2023-04-01T15:04:34;3.50;;;0.50;;
2706;SDS011;7819;48.046;7.642;2023-04-01T15:09:39;1.40;;;0.50;;
2706;SDS011;7819;48.046;7.642;2023-04-01T15:38:50;1.00;;;0.47;;
2706;SDS011;7819;48.046;7.642;2023-04-01T15:44:01;1.10;;;0.60;;
2706;SDS011;7819;48.046;7.642;2023-04-01T15:46:30;1.23;;;0.50;;
2706;SDS011;7819;48.046;7.642;2023-04-01T16:07:55;2.47;;;1.33;;
2706;SDS011;7819;48.046;7.642;2023-04-01T16:15:32;1.20;;;0.70;;
2706;SDS011;7819;48.046;7.642;2023-04-01T16:18:06;0.90;;;0.60;;
2706;SDS011;7819;48.046;7.642;2023-04-01T16:20:40;1.50;;;1.20;;
2706;SDS011;7819;48.046;7.642;2023-04-01T16:25:39;1.67;;;1.00;;
2706;SDS011;7819;48.046;7.642;2023-04-01T16:30:55;1.33;;;0.63;;
2706;SDS011;7819;48.046;7.642;2023-04-01T16:33:23;1.00;;;0.83;;
2706;SDS011;7819;48.046;7.642;2023-04-01T16:35:55;1.10;;;0.67;;
2706;SDS011;7819;48.046;7.642;2023-04-01T16:38:25;3.27;;;0.83;;
2706;SDS011;7819;48.046;7.642;2023-04-01T16:43:40;2.43;;;1.10;;
2706;SDS011;7819;48.046;7.642;2023-04-01T16:51:20;2.30;;;1.07;;
2706;SDS011;7819;48.046;7.642;2023-04-01T16:53:48;1.53;;;0.90;;
2706;SDS011;7819;48.046;7.642;2023-04-01T16:57:02;1.00;;;0.60;;
2706;SDS011;7819;48.046;7.642;2023-04-01T17:04:25;0.80;;;0.50;;
2706;SDS011;7819;48.046;7.642;2023-04-01T17:07:01;1.10;;;0.60;;
2706;SDS011;7819;48.046;7.642;2023-04-01T17:12:28;1.83;;;0.87;;
2706;SDS011;7819;48.046;7.642;2023-04-01T17:15:13;0.90;;;0.60;;
2706;SDS011;7819;48.046;7.642;2023-04-01T17:25:28;1.07;;;0.83;;
2706;SDS011;7819;48.046;7.642;2023-04-01T17:30:32;1.30;;;0.80;;
2706;SDS011;7819;48.046;7.642;2023-04-01T17:42:52;0.80;;;0.57;;
2706;SDS011;7819;48.046;7.642;2023-04-01T17:45:21;4.20;;;1.03;;
2706;SDS011;7819;48.046;7.642;2023-04-01T17:48:08;1.20;;;0.70;;
2706;SDS011;7819;48.046;7.642;2023-04-01T17:55:53;1.80;;;0.60;;
2706;SDS011;7819;48.046;7.642;2023-04-01T17:58:34;1.07;;;0.73;;
2706;SDS011;7819;48.046;7.642;2023-04-01T18:01:17;1.13;;;0.50;;
2706;SDS011;7819;48.046;7.642;2023-04-01T18:06:19;1.10;;;0.80;;
2706;SDS011;7819;48.046;7.642;2023-04-01T18:14:13;1.00;;;0.87;;
2706;SDS011;7819;48.046;7.642;2023-04-01T18:16:58;2.40;;;2.10;;
2706;SDS011;7819;48.046;7.642;2023-04-01T18:19:37;0.87;;;0.70;;
2706;SDS011;7819;48.046;7.642;2023-04-01T18:22:09;1.03;;;0.60;;
2706;SDS011;7819;48.046;7.642;2023-04-01T18:24:40;2.40;;;0.50;;
2706;SDS011;7819;48.046;7.642;2023-04-01T18:27:18;1.37;;;0.80;;
2706;SDS011;7819;48.046;7.642;2023-04-01T18:29:59;0.93;;;0.70;;
2706;SDS011;7819;48.046;7.642;2023-04-01T18:35:28;1.20;;;0.90;;
2706;SDS011;7819;48.046;7.642;2023-04-01T18:38:03;1.00;;;0.80;;
2706;SDS011;7819;48.046;7.642;2023-04-01T18:40:35;1.03;;;0.60;;
2706;SDS011;7819;48.046;7.642;2023-04-01T18:43:05;1.57;;;0.80;;
2706;SDS011;7819;48.046;7.642;2023-04-01T18:45:35;1.00;;;0.53;;
2706;SDS011;7819;48.046;7.642;2023-04-01T18:48:12;1.00;;;0.83;;
2706;SDS011;7819;48.046;7.642;2023-04-01T18:50:47;1.53;;;0.80;;
2706;SDS011;7819;48.046;7.642;2023-04-01T18:53:15;1.47;;;1.00;;
2706;SDS011;7819;48.046;7.642;2023-04-01T18:55:56;6.17;;;2.53;;
2706;SDS011;7819;48.046;7.642;2023-04-01T18:58:32;1.20;;;0.97;;
2706;SDS011;7819;48.046;7.642;2023-04-01T19:01:07;2.73;;;1.90;;
2706;SDS011;7819;48.046;7.642;2023-04-01T19:03:45;1.00;;;0.77;;
2706;SDS011;7819;48.046;7.642;2023-04-01T19:06:17;1.53;;;0.80;;
2706;SDS011;7819;48.046;7.642;2023-04-01T19:08:43;0.80;;;0.80;;
2706;SDS011;7819;48.046;7.642;2023-04-01T19:11:10;1.47;;;0.90;;
2706;SDS011;7819;48.046;7.642;2023-04-01T19:21:19;1.40;;;0.90;;
2706;SDS011;7819;48.046;7.642;2023-04-01T19:26:12;1.00;;;0.75;;
2706;SDS011;7819;48.046;7.642;2023-04-01T19:33:45;1.90;;;1.07;;
2706;SDS011;7819;48.046;7.642;2023-04-01T19:39:05;2.10;;;1.03;;
2706;SDS011;7819;48.046;7.642;2023-04-01T19:41:36;0.80;;;0.70;;
2706;SDS011;7819;48.046;7.642;2023-04-01T19:49:32;1.87;;;0.70;;
2706;SDS011;7819;48.046;7.642;2023-04-01T19:52:08;1.63;;;0.90;;
2706;SDS011;7819;48.046;7.642;2023-04-01T20:05:19;1.70;;;0.73;;
2706;SDS011;7819;48.046;7.642;2023-04-01T20:07:52;1.47;;;0.90;;
2706;SDS011;7819;48.046;7.642;2023-04-01T20:11:08;1.40;;;0.80;;
2706;SDS011;7819;48.046;7.642;2023-04-01T20:16:08;2.23;;;1.00;;
2706;SDS011;7819;48.046;7.642;2023-04-01T20:21:03;2.53;;;0.93;;
2706;SDS011;7819;48.046;7.642;2023-04-01T20:23:41;0.90;;;0.70;;
2706;SDS011;7819;48.046;7.642;2023-04-01T20:26:08;1.40;;;1.10;;
2706;SDS011;7819;48.046;7.642;2023-04-01T20:41:55;1.70;;;1.30;;
2706;SDS011;7819;48.046;7.642;2023-04-01T20:49:39;5.47;;;2.78;;
2706;SDS011;7819;48.046;7.642;2023-04-01T20:54:37;1.70;;;1.10;;
2706;SDS011;7819;48.046;7.642;2023-04-01T20:57:19;1.83;;;1.27;;
2706;SDS011;7819;48.046;7.642;2023-04-01T20:59:58;2.73;;;1.53;;
2706;SDS011;7819;48.046;7.642;2023-04-01T21:05:09;2.00;;;1.58;;
2706;SDS011;7819;48.046;7.642;2023-04-01T21:18:13;1.97;;;1.77;;
2706;SDS011;7819;48.046;7.642;2023-04-01T21:23:34;2.40;;;1.60;;
2706;SDS011;7819;48.046;7.642;2023-04-01T21:33:49;1.83;;;1.70;;
2706;SDS011;7819;48.046;7.642;2023-04-01T21:44:12;2.00;;;1.70;;
2706;SDS011;7819;48.046;7.642;2023-04-01T22:07:52;1.67;;;1.58;;
2706;SDS011;7819;48.046;7.642;2023-04-01T22:12:56;2.00;;;1.80;;
2706;SDS011;7819;48.046;7.642;2023-04-01T22:18:13;1.70;;;1.40;;
2706;SDS011;7819;48.046;7.642;2023-04-01T22:20:51;1.97;;;1.60;;
2706;SDS011;7819;48.046;7.642;2023-04-01T22:23:20;2.73;;;2.10;;
2706;SDS011;7819;48.046;7.642;2023-04-01T22:28:27;3.00;;;2.60;;
2706;SDS011;7819;48.046;7.642;2023-04-01T22:30:55;4.10;;;2.60;;
2706;SDS011;7819;48.046;7.642;2023-04-01T22:43:54;3.53;;;2.30;;
2706;SDS011;7819;48.046;7.642;2023-04-01T22:47:24;3.30;;;1.80;;
2706;SDS011;7819;48.046;7.642;2023-04-01T22:49:32;2.63;;;1.53;;
2706;SDS011;7819;48.046;7.642;2023-04-01T22:52:18;2.03;;;1.73;;
2706;SDS011;7819;48.046;7.642;2023-04-01T22:54:46;2.00;;;1.80;;
2706;SDS011;7819;48.046;7.642;2023-04-01T22:59:46;1.70;;;1.43;;
2706;SDS011;7819;48.046;7.642;2023-04-01T23:02:14;2.40;;;1.53;;
2706;SDS011;7819;48.046;7.642;2023-04-01T23:04:42;2.17;;;1.60;;
2706;SDS011;7819;48.046;7.642;2023-04-01T23:08:19;1.80;;;1.10;;
2706;SDS011;7819;48.046;7.642;2023-04-01T23:10:12;1.90;;;1.53;;
2706;SDS011;7819;48.046;7.642;2023-04-01T23:12:39;2.30;;;1.90;;
2706;SDS011;7819;48.046;7.642;2023-04-01T23:15:10;3.63;;;1.57;;
2706;SDS011;7819;48.046;7.642;2023-04-01T23:20:30;1.93;;;1.60;;
2706;SDS011;7819;48.046;7.642;2023-04-01T23:23:09;5.47;;;1.90;;
2706;SDS011;7819;48.046;7.642;2023-04-01T23:25:43;1.97;;;1.87;;
2706;SDS011;7819;48.046;7.642;2023-04-01T23:38:12;1.53;;;1.20;;
2706;SDS011;7819;48.046;7.642;2023-04-01T23:40:37;3.10;;;1.67;;
2706;SDS011;7819;48.046;7.642;2023-04-01T23:43:10;5.40;;;2.70;;
2706;SDS011;7819;48.046;7.642;2023-04-01T23:45:37;2.87;;;2.50;;
2706;SDS011;7819;48.046;7.642;2023-04-01T23:48:02;3.50;;;2.40;;
2706;SDS011;7819;48.046;7.642;2023-04-01T23:50:27;2.90;;;2.10;;
2706;SDS011;7819;48.046;7.642;2023-04-01T23:52:54;4.30;;;2.57;;
2706;SDS011;7819;48.046;7.642;2023-04-01T23:55:23;1.80;;;1.60;;
2706;SDS011;7819;48.046;7.642;2023-04-01T23:58:38;1.93;;;1.70;;
